createdAt,value
2023-11-10T00:00:42.292Z,954.2
2023-11-10T00:01:44.134Z,954.1
2023-11-10T00:02:46.570Z,954.1
2023-11-10T00:03:49.675Z,954.1
2023-11-10T00:04:52.784Z,954.1
2023-11-10T00:05:55.375Z,954.1
2023-11-10T00:06:57.609Z,954.1
2023-11-10T00:07:59.372Z,954.1
2023-11-10T00:09:01.231Z,954.1
2023-11-10T00:10:03.067Z,954.1
2023-11-10T00:11:04.854Z,954.1
2023-11-10T00:12:06.772Z,954.1
2023-11-10T00:13:08.723Z,954.1
2023-11-10T00:14:21.755Z,954.1
2023-11-10T00:15:36.793Z,954.1
2023-11-10T00:16:38.635Z,954.1
2023-11-10T00:17:40.559Z,954.2
2023-11-10T00:18:42.476Z,954.2
2023-11-10T00:19:44.412Z,954.2
2023-11-10T00:20:46.334Z,954.1
2023-11-10T00:21:48.177Z,954.1
2023-11-10T00:22:49.927Z,954.1
2023-11-10T00:23:51.722Z,954.1
2023-11-10T00:24:53.527Z,954.1
2023-11-10T00:25:55.356Z,954.1
2023-11-10T00:26:57.154Z,954.1
2023-11-10T00:27:58.912Z,954
2023-11-10T00:29:00.734Z,954.1
2023-11-10T00:30:02.538Z,954
2023-11-10T00:31:04.328Z,954
2023-11-10T00:32:06.135Z,954.1
2023-11-10T00:33:08.516Z,954.1
2023-11-10T00:34:11.233Z,954.1
2023-11-10T00:35:13.256Z,954.1
2023-11-10T00:36:15.248Z,954.2
2023-11-10T00:37:19.924Z,954.1
2023-11-10T00:38:21.710Z,954.1
2023-11-10T00:39:25.800Z,954.1
2023-11-10T00:40:27.760Z,954.1
2023-11-10T00:41:29.621Z,954
2023-11-10T00:42:31.577Z,954
2023-11-10T00:43:33.434Z,954
2023-11-10T00:44:35.233Z,954
2023-11-10T00:45:37.226Z,954
2023-11-10T00:46:39.383Z,954
2023-11-10T00:47:41.421Z,954
2023-11-10T00:48:43.384Z,954
2023-11-10T00:49:45.343Z,954.1
2023-11-10T00:50:47.149Z,954
2023-11-10T00:51:48.949Z,954.1
2023-11-10T00:52:50.741Z,954
2023-11-10T00:53:52.696Z,954
2023-11-10T00:54:54.499Z,954
2023-11-10T00:55:56.466Z,954
2023-11-10T00:56:58.269Z,954
2023-11-10T00:58:00.043Z,954
2023-11-10T00:59:01.930Z,954
2023-11-10T01:00:03.743Z,954
2023-11-10T01:01:05.608Z,954
2023-11-10T01:02:07.657Z,954
2023-11-10T01:03:10.307Z,954
2023-11-10T01:04:12.965Z,954
2023-11-10T01:05:15.070Z,954
2023-11-10T01:06:17.474Z,954
2023-11-10T01:07:19.684Z,954
2023-11-10T01:08:21.503Z,954
2023-11-10T01:09:23.417Z,953.9
2023-11-10T01:10:25.268Z,953.9
2023-11-10T01:11:27.444Z,953.9
2023-11-10T01:12:29.313Z,953.9
2023-11-10T01:13:31.190Z,954
2023-11-10T01:14:32.989Z,953.9
2023-11-10T01:15:34.825Z,953.9
2023-11-10T01:16:37.027Z,953.9
2023-11-10T01:17:39.054Z,953.9
2023-11-10T01:18:41.200Z,953.9
2023-11-10T01:19:43.009Z,953.9
2023-11-10T01:20:44.844Z,953.9
2023-11-10T01:21:47.040Z,953.9
2023-11-10T01:22:49.065Z,953.9
2023-11-10T01:23:50.863Z,953.9
2023-11-10T01:24:52.640Z,953.9
2023-11-10T01:25:54.462Z,953.9
2023-11-10T01:26:56.306Z,953.9
2023-11-10T01:27:58.158Z,953.9
2023-11-10T01:28:59.956Z,953.9
2023-11-10T01:30:01.728Z,953.9
2023-11-10T01:31:03.732Z,953.9
2023-11-10T01:32:05.574Z,953.9
2023-11-10T01:33:07.831Z,953.9
2023-11-10T01:34:10.320Z,953.9
2023-11-10T01:35:12.324Z,953.9
2023-11-10T01:36:14.296Z,953.9
2023-11-10T01:37:16.366Z,953.9
2023-11-10T01:38:18.163Z,953.9
2023-11-10T01:39:20.011Z,953.9
2023-11-10T01:40:21.859Z,953.8
2023-11-10T01:41:26.354Z,953.8
2023-11-10T01:42:28.275Z,953.8
2023-11-10T01:43:30.115Z,953.8
2023-11-10T01:44:31.880Z,953.8
2023-11-10T01:45:33.810Z,953.8
2023-11-10T01:46:36.017Z,953.8
2023-11-10T01:47:38.175Z,953.8
2023-11-10T01:48:40.345Z,953.8
2023-11-10T01:49:42.437Z,953.8
2023-11-10T01:50:44.372Z,953.7
2023-11-10T01:51:46.946Z,953.7
2023-11-10T01:52:49.179Z,953.7
2023-11-10T01:53:50.938Z,953.7
2023-11-10T01:54:52.715Z,953.7
2023-11-10T01:55:54.491Z,953.7
2023-11-10T01:56:56.330Z,953.7
2023-11-10T01:57:58.116Z,953.7
2023-11-10T01:58:59.878Z,953.6
2023-11-10T02:00:01.628Z,953.6
2023-11-10T02:01:03.362Z,953.6
2023-11-10T02:02:05.780Z,953.6
2023-11-10T02:03:08.523Z,953.6
2023-11-10T02:04:11.645Z,953.6
2023-11-10T02:05:13.704Z,953.6
2023-11-10T02:06:15.657Z,953.6
2023-11-10T02:07:17.567Z,953.6
2023-11-10T02:08:19.424Z,953.5
2023-11-10T02:09:21.416Z,953.5
2023-11-10T02:10:23.270Z,953.5
2023-11-10T02:11:25.071Z,953.5
2023-11-10T02:12:27.154Z,953.5
2023-11-10T02:13:28.992Z,953.5
2023-11-10T02:14:30.951Z,953.5
2023-11-10T02:15:32.903Z,953.5
2023-11-10T02:16:34.976Z,953.5
2023-11-10T02:17:36.908Z,953.5
2023-11-10T02:18:38.875Z,953.5
2023-11-10T02:19:40.819Z,953.5
2023-11-10T02:20:42.549Z,953.5
2023-11-10T02:21:44.483Z,953.5
2023-11-10T02:22:46.612Z,953.5
2023-11-10T02:23:48.404Z,953.5
2023-11-10T02:24:50.209Z,953.4
2023-11-10T02:25:52.104Z,953.4
2023-11-10T02:26:53.850Z,953.4
2023-11-10T02:27:55.615Z,953.4
2023-11-10T02:28:57.479Z,953.4
2023-11-10T02:29:59.230Z,953.4
2023-11-10T02:31:01.189Z,953.4
2023-11-10T02:32:03.030Z,953.4
2023-11-10T02:33:04.956Z,953.4
2023-11-10T02:34:06.978Z,953.4
2023-11-10T02:35:08.796Z,953.4
2023-11-10T02:36:10.649Z,953.4
2023-11-10T02:37:12.643Z,953.4
2023-11-10T02:38:14.447Z,953.4
2023-11-10T02:39:16.467Z,953.4
2023-11-10T02:40:18.266Z,953.3
2023-11-10T02:41:20.003Z,953.4
2023-11-10T02:42:21.799Z,953.4
2023-11-10T02:43:23.747Z,953.4
2023-11-10T02:44:25.507Z,953.4
2023-11-10T02:45:27.327Z,953.3
2023-11-10T02:46:32.367Z,953.3
2023-11-10T02:47:34.508Z,953.3
2023-11-10T02:48:36.696Z,953.2
2023-11-10T02:49:38.824Z,953.2
2023-11-10T02:50:40.693Z,953.2
2023-11-10T02:51:42.795Z,953.2
2023-11-10T02:52:44.913Z,953.1
2023-11-10T02:53:46.691Z,953.2
2023-11-10T02:54:48.680Z,953.1
2023-11-10T02:55:50.494Z,953.1
2023-11-10T02:56:52.312Z,953.1
2023-11-10T02:57:54.086Z,953.1
2023-11-10T02:58:55.875Z,953.2
2023-11-10T02:59:57.648Z,953.2
2023-11-10T03:00:59.498Z,953.2
2023-11-10T03:02:01.254Z,953.3
2023-11-10T03:03:06.430Z,953.3
2023-11-10T03:04:08.968Z,953.3
2023-11-10T03:05:11.098Z,953.3
2023-11-10T03:06:13.048Z,953.4
2023-11-10T03:07:14.834Z,953.3
2023-11-10T03:08:16.641Z,953.3
2023-11-10T03:09:18.729Z,953.2
2023-11-10T03:10:20.666Z,953.2
2023-11-10T03:11:22.474Z,953.2
2023-11-10T03:12:24.379Z,953.2
2023-11-10T03:13:26.198Z,953.2
2023-11-10T03:14:27.932Z,953.2
2023-11-10T03:15:30.141Z,953.2
2023-11-10T03:16:32.061Z,953.2
2023-11-10T03:17:33.987Z,953.2
2023-11-10T03:18:36.429Z,953.2
2023-11-10T03:19:38.841Z,953.2
2023-11-10T03:20:40.691Z,953.2
2023-11-10T03:21:42.889Z,953.2
2023-11-10T03:22:45.244Z,953.2
2023-11-10T03:23:47.060Z,953.2
2023-11-10T03:24:49.021Z,953.2
2023-11-10T03:25:50.943Z,953.1
2023-11-10T03:26:52.771Z,953.1
2023-11-10T03:27:54.497Z,953.1
2023-11-10T03:28:56.248Z,953
2023-11-10T03:29:58.006Z,953
2023-11-10T03:30:59.789Z,953
2023-11-10T03:32:01.676Z,953.1
2023-11-10T03:33:03.604Z,953
2023-11-10T03:34:05.711Z,953.1
2023-11-10T03:35:07.520Z,953
2023-11-10T03:36:09.302Z,953
2023-11-10T03:37:11.226Z,953
2023-11-10T03:38:13.058Z,953
2023-11-10T03:39:14.962Z,953
2023-11-10T03:40:16.861Z,953
2023-11-10T03:41:18.624Z,953.1
2023-11-10T03:42:20.481Z,953
2023-11-10T03:43:22.278Z,953.1
2023-11-10T03:44:24.062Z,953
2023-11-10T03:45:25.918Z,953
2023-11-10T03:46:27.917Z,953
2023-11-10T03:47:29.965Z,952.9
2023-11-10T03:48:32.048Z,952.9
2023-11-10T03:49:33.990Z,952.9
2023-11-10T03:50:35.748Z,952.9
2023-11-10T03:51:37.820Z,952.9
2023-11-10T03:52:39.778Z,952.9
2023-11-10T03:53:41.550Z,952.8
2023-11-10T03:54:43.636Z,952.8
2023-11-10T03:55:45.454Z,952.8
2023-11-10T03:56:47.260Z,952.8
2023-11-10T03:57:49.267Z,952.8
2023-11-10T03:58:51.054Z,952.8
2023-11-10T03:59:53.015Z,952.8
2023-11-10T04:00:57.544Z,952.8
2023-11-10T04:01:59.524Z,952.8
2023-11-10T04:03:01.616Z,952.8
2023-11-10T04:04:04.123Z,952.7
2023-11-10T04:05:06.091Z,952.8
2023-11-10T04:06:07.883Z,952.8
2023-11-10T04:07:10.421Z,952.7
2023-11-10T04:08:12.422Z,952.7
2023-11-10T04:09:14.278Z,952.7
2023-11-10T04:10:16.093Z,952.8
2023-11-10T04:11:18.244Z,952.8
2023-11-10T04:12:20.132Z,952.7
2023-11-10T04:13:21.940Z,952.7
2023-11-10T04:14:23.721Z,952.7
2023-11-10T04:15:25.739Z,952.6
2023-11-10T04:16:27.784Z,952.6
2023-11-10T04:17:30.378Z,952.6
2023-11-10T04:18:32.368Z,952.6
2023-11-10T04:19:34.350Z,952.6
2023-11-10T04:20:36.538Z,952.6
2023-11-10T04:21:38.579Z,952.6
2023-11-10T04:22:40.524Z,952.6
2023-11-10T04:23:42.312Z,952.5
2023-11-10T04:24:44.368Z,952.6
2023-11-10T04:25:46.394Z,952.6
2023-11-10T04:26:48.315Z,952.6
2023-11-10T04:27:50.296Z,952.6
2023-11-10T04:28:52.392Z,952.6
2023-11-10T04:29:54.556Z,952.6
2023-11-10T04:30:56.804Z,952.6
2023-11-10T04:31:59.078Z,952.6
2023-11-10T04:33:01.252Z,952.6
2023-11-10T04:34:03.380Z,952.6
2023-11-10T04:35:05.264Z,952.6
2023-11-10T04:36:07.066Z,952.6
2023-11-10T04:37:08.858Z,952.6
2023-11-10T04:38:10.888Z,952.6
2023-11-10T04:39:12.861Z,952.7
2023-11-10T04:40:14.834Z,952.6
2023-11-10T04:41:16.842Z,952.7
2023-11-10T04:42:18.902Z,952.7
2023-11-10T04:43:20.810Z,952.6
2023-11-10T04:44:22.625Z,952.6
2023-11-10T04:45:24.608Z,952.5
2023-11-10T04:46:26.670Z,952.5
2023-11-10T04:47:28.555Z,952.5
2023-11-10T04:48:30.646Z,952.5
2023-11-10T04:49:32.512Z,952.5
2023-11-10T04:50:34.360Z,952.5
2023-11-10T04:51:37.693Z,952.5
2023-11-10T04:52:39.683Z,952.5
2023-11-10T04:53:41.491Z,952.5
2023-11-10T04:54:43.622Z,952.6
2023-11-10T04:55:45.556Z,952.6
2023-11-10T04:56:47.371Z,952.6
2023-11-10T04:57:49.539Z,952.5
2023-11-10T04:58:51.651Z,952.5
2023-11-10T04:59:53.465Z,952.5
2023-11-10T05:00:55.406Z,952.5
2023-11-10T05:01:57.334Z,952.5
2023-11-10T05:02:59.333Z,952.4
2023-11-10T05:04:01.712Z,952.4
2023-11-10T05:05:03.859Z,952.5
2023-11-10T05:06:05.676Z,952.5
2023-11-10T05:07:07.464Z,952.5
2023-11-10T05:08:09.291Z,952.5
2023-11-10T05:09:11.120Z,952.4
2023-11-10T05:10:12.885Z,952.5
2023-11-10T05:11:14.755Z,952.4
2023-11-10T05:12:17.011Z,952.4
2023-11-10T05:13:18.867Z,952.4
2023-11-10T05:14:20.796Z,952.4
2023-11-10T05:15:22.630Z,952.4
2023-11-10T05:16:24.482Z,952.3
2023-11-10T05:17:26.464Z,952.4
2023-11-10T05:19:42.165Z,952.4
2023-11-10T05:20:44.024Z,952.4
2023-11-10T05:21:46.164Z,952.4
2023-11-10T05:22:48.181Z,952.4
2023-11-10T05:23:50.032Z,952.4
2023-11-10T05:24:52.057Z,952.4
2023-11-10T05:25:53.931Z,952.4
2023-11-10T05:26:55.675Z,952.5
2023-11-10T05:28:02.287Z,952.5
2023-11-10T05:29:04.343Z,952.5
2023-11-10T05:30:06.136Z,952.5
2023-11-10T05:31:07.898Z,952.5
2023-11-10T05:32:09.642Z,952.5
2023-11-10T05:33:11.656Z,952.5
2023-11-10T05:34:13.468Z,952.5
2023-11-10T05:35:15.242Z,952.5
2023-11-10T05:36:17.371Z,952.5
2023-11-10T05:37:19.152Z,952.5
2023-11-10T05:38:20.964Z,952.5
2023-11-10T05:39:22.876Z,952.6
2023-11-10T05:40:24.786Z,952.6
2023-11-10T05:41:26.616Z,952.6
2023-11-10T05:42:28.478Z,952.6
2023-11-10T05:43:30.369Z,952.6
2023-11-10T05:44:32.197Z,952.6
2023-11-10T05:45:34.093Z,952.6
2023-11-10T05:46:36.043Z,952.6
2023-11-10T05:47:38.100Z,952.6
2023-11-10T05:48:40.027Z,952.6
2023-11-10T05:49:41.919Z,952.6
2023-11-10T05:50:43.980Z,952.6
2023-11-10T05:51:45.952Z,952.6
2023-11-10T05:52:47.844Z,952.6
2023-11-10T05:53:49.570Z,952.5
2023-11-10T05:54:51.507Z,952.5
2023-11-10T05:55:53.284Z,952.5
2023-11-10T05:56:55.076Z,952.5
2023-11-10T05:57:57.057Z,952.5
2023-11-10T05:58:58.800Z,952.5
2023-11-10T06:00:00.782Z,952.5
2023-11-10T06:01:02.730Z,952.5
2023-11-10T06:02:05.105Z,952.5
2023-11-10T06:03:07.060Z,952.5
2023-11-10T06:04:33.996Z,952.5
2023-11-10T06:05:38.284Z,952.5
2023-11-10T06:06:40.196Z,952.5
2023-11-10T06:07:42.030Z,952.5
2023-11-10T06:08:43.763Z,952.5
2023-11-10T06:09:45.645Z,952.5
2023-11-10T06:10:47.672Z,952.5
2023-11-10T06:11:56.977Z,952.5
2023-11-10T06:12:58.995Z,952.4
2023-11-10T06:14:00.808Z,952.4
2023-11-10T06:15:02.628Z,952.4
2023-11-10T06:16:04.783Z,952.4
2023-11-10T06:17:06.883Z,952.5
2023-11-10T06:18:08.976Z,952.4
2023-11-10T06:19:10.991Z,952.4
2023-11-10T06:20:12.762Z,952.5
2023-11-10T06:21:14.576Z,952.5
2023-11-10T06:22:16.309Z,952.4
2023-11-10T06:23:18.134Z,952.4
2023-11-10T06:24:19.955Z,952.4
2023-11-10T06:25:21.803Z,952.4
2023-11-10T06:26:23.604Z,952.4
2023-11-10T06:27:25.737Z,952.4
2023-11-10T06:28:27.726Z,952.4
2023-11-10T06:29:29.503Z,952.4
2023-11-10T06:30:31.485Z,952.5
2023-11-10T06:31:33.324Z,952.5
2023-11-10T06:32:35.494Z,952.5
2023-11-10T06:33:37.657Z,952.5
2023-11-10T06:34:39.582Z,952.5
2023-11-10T06:35:41.431Z,952.5
2023-11-10T06:36:43.498Z,952.5
2023-11-10T06:37:45.713Z,952.5
2023-11-10T06:38:47.500Z,952.5
2023-11-10T06:39:49.571Z,952.5
2023-11-10T06:40:51.486Z,952.4
2023-11-10T06:41:53.366Z,952.4
2023-11-10T06:42:55.454Z,952.4
2023-11-10T06:43:57.406Z,952.4
2023-11-10T06:45:01.903Z,952.4
2023-11-10T06:46:03.751Z,952.4
2023-11-10T06:47:05.910Z,952.3
2023-11-10T06:48:07.928Z,952.3
2023-11-10T06:49:09.811Z,952.3
2023-11-10T06:50:11.579Z,952.3
2023-11-10T06:51:13.332Z,952.2
2023-11-10T06:52:15.123Z,952.2
2023-11-10T06:53:17.019Z,952.2
2023-11-10T06:54:18.869Z,952.2
2023-11-10T06:55:20.950Z,952.2
2023-11-10T06:56:22.670Z,952.3
2023-11-10T06:57:24.601Z,952.3
2023-11-10T06:58:26.439Z,952.2
2023-11-10T06:59:28.273Z,952.2
2023-11-10T07:00:30.282Z,952.2
2023-11-10T07:01:32.620Z,952.2
2023-11-10T07:02:34.735Z,952.2
2023-11-10T07:03:37.284Z,952.2
2023-11-10T07:04:40.127Z,952.2
2023-11-10T07:05:42.418Z,952.2
2023-11-10T07:06:44.265Z,952.2
2023-11-10T07:07:46.374Z,952.2
2023-11-10T07:08:48.255Z,952.2
2023-11-10T07:09:50.243Z,952.2
2023-11-10T07:10:52.204Z,952.1
2023-11-10T07:11:53.975Z,952.1
2023-11-10T07:12:55.999Z,952.1
2023-11-10T07:13:57.943Z,952
2023-11-10T07:14:59.678Z,952
2023-11-10T07:16:01.918Z,952
2023-11-10T07:17:03.882Z,952.1
2023-11-10T07:18:06.016Z,952
2023-11-10T07:19:08.018Z,952
2023-11-10T07:20:09.904Z,952
2023-11-10T07:21:11.768Z,952
2023-11-10T07:22:13.568Z,952
2023-11-10T07:23:15.377Z,952
2023-11-10T07:24:17.149Z,952
2023-11-10T07:25:18.882Z,952
2023-11-10T07:26:20.625Z,952
2023-11-10T07:27:22.463Z,951.9
2023-11-10T07:28:24.304Z,951.8
2023-11-10T07:29:26.175Z,951.9
2023-11-10T07:30:28.090Z,951.8
2023-11-10T07:31:30.059Z,951.8
2023-11-10T07:32:32.551Z,951.8
2023-11-10T07:33:34.709Z,951.9
2023-11-10T07:34:36.815Z,951.9
2023-11-10T07:35:38.751Z,951.8
2023-11-10T07:36:40.797Z,951.8
2023-11-10T07:37:42.566Z,951.8
2023-11-10T07:38:44.347Z,951.7
2023-11-10T07:39:46.360Z,951.7
2023-11-10T07:40:48.403Z,951.7
2023-11-10T07:41:50.149Z,951.7
2023-11-10T07:42:52.281Z,951.8
2023-11-10T07:43:54.160Z,951.8
2023-11-10T07:44:55.991Z,951.8
2023-11-10T07:45:58.016Z,951.8
2023-11-10T07:47:00.128Z,951.8
2023-11-10T07:48:02.406Z,951.8
2023-11-10T07:49:04.480Z,951.8
2023-11-10T07:50:06.406Z,951.8
2023-11-10T07:51:08.197Z,951.7
2023-11-10T07:52:10.035Z,951.8
2023-11-10T07:53:11.882Z,951.8
2023-11-10T07:54:13.689Z,951.7
2023-11-10T07:55:15.692Z,951.7
2023-11-10T07:56:17.533Z,951.8
2023-11-10T07:57:19.697Z,951.7
2023-11-10T07:58:21.519Z,951.7
2023-11-10T07:59:23.289Z,951.7
2023-11-10T08:00:25.131Z,951.7
2023-11-10T08:01:26.908Z,951.7
2023-11-10T08:02:28.847Z,951.7
2023-11-10T08:03:31.020Z,951.7
2023-11-10T08:04:33.483Z,951.8
2023-11-10T08:05:35.591Z,951.8
2023-11-10T08:06:37.751Z,951.8
2023-11-10T08:07:39.580Z,951.8
2023-11-10T08:08:41.322Z,951.7
2023-11-10T08:09:43.304Z,951.6
2023-11-10T08:10:45.277Z,951.7
2023-11-10T08:11:55.784Z,951.6
2023-11-10T08:12:57.778Z,951.6
2023-11-10T08:13:59.715Z,951.6
2023-11-10T08:15:02.156Z,951.6
2023-11-10T08:16:04.804Z,951.7
2023-11-10T08:17:06.834Z,951.7
2023-11-10T08:18:08.644Z,951.7
2023-11-10T08:19:10.687Z,951.7
2023-11-10T08:20:12.452Z,951.7
2023-11-10T08:21:14.258Z,951.7
2023-11-10T08:22:16.137Z,951.7
2023-11-10T08:23:17.917Z,951.8
2023-11-10T08:24:19.699Z,951.7
2023-11-10T08:25:21.510Z,951.7
2023-11-10T08:26:23.342Z,951.7
2023-11-10T08:27:25.270Z,951.6
2023-11-10T08:28:27.102Z,951.6
2023-11-10T08:29:28.881Z,951.6
2023-11-10T08:30:30.801Z,951.5
2023-11-10T08:31:32.805Z,951.5
2023-11-10T08:32:34.669Z,951.5
2023-11-10T08:33:36.630Z,951.5
2023-11-10T08:34:38.668Z,951.5
2023-11-10T08:35:40.567Z,951.5
2023-11-10T08:36:42.426Z,951.5
2023-11-10T08:37:44.294Z,951.5
2023-11-10T08:38:46.088Z,951.4
2023-11-10T08:39:48.086Z,951.4
2023-11-10T08:40:49.882Z,951.4
2023-11-10T08:41:51.683Z,951.4
2023-11-10T08:42:53.586Z,951.4
2023-11-10T08:43:55.488Z,951.4
2023-11-10T08:44:57.341Z,951.4
2023-11-10T08:45:59.349Z,951.5
2023-11-10T08:47:01.304Z,951.4
2023-11-10T08:48:03.213Z,951.4
2023-11-10T08:49:05.369Z,951.5
2023-11-10T08:50:07.599Z,951.5
2023-11-10T08:51:09.384Z,951.5
2023-11-10T08:52:11.211Z,951.6
2023-11-10T08:53:12.982Z,951.5
2023-11-10T08:54:14.768Z,951.5
2023-11-10T08:55:16.481Z,951.5
2023-11-10T08:56:18.312Z,951.5
2023-11-10T08:57:20.255Z,951.5
2023-11-10T08:58:22.058Z,951.4
2023-11-10T08:59:23.825Z,951.4
2023-11-10T09:00:25.753Z,951.4
2023-11-10T09:01:27.808Z,951.4
2023-11-10T09:02:29.727Z,951.4
2023-11-10T09:03:32.044Z,951.3
2023-11-10T09:04:34.368Z,951.3
2023-11-10T09:05:36.443Z,951.3
2023-11-10T09:06:38.584Z,951.3
2023-11-10T09:07:40.596Z,951.3
2023-11-10T09:08:42.428Z,951.3
2023-11-10T09:09:44.347Z,951.3
2023-11-10T09:10:46.364Z,951.4
2023-11-10T09:11:48.152Z,951.3
2023-11-10T09:12:50.468Z,951.3
2023-11-10T09:13:53.309Z,951.3
2023-11-10T09:14:55.069Z,951.2
2023-11-10T09:16:03.428Z,951.2
2023-11-10T09:17:05.780Z,951.1
2023-11-10T09:18:07.869Z,951
2023-11-10T09:19:09.881Z,950.9
2023-11-10T09:20:11.972Z,951
2023-11-10T09:21:13.843Z,951.1
2023-11-10T09:22:15.722Z,951
2023-11-10T09:23:17.736Z,951
2023-11-10T09:24:19.730Z,951
2023-11-10T09:25:21.881Z,951
2023-11-10T09:26:24.143Z,951
2023-11-10T09:27:26.037Z,951
2023-11-10T09:28:27.950Z,951
2023-11-10T09:29:29.721Z,951
2023-11-10T09:30:31.608Z,950.9
2023-11-10T09:31:33.465Z,950.8
2023-11-10T09:32:35.468Z,950.7
2023-11-10T09:33:42.447Z,950.8
2023-11-10T09:34:44.598Z,950.8
2023-11-10T09:35:46.488Z,950.7
2023-11-10T09:36:48.351Z,950.6
2023-11-10T09:37:50.193Z,950.6
2023-11-10T09:38:52.049Z,950.7
2023-11-10T09:39:58.785Z,950.7
2023-11-10T09:41:00.885Z,950.7
2023-11-10T09:42:02.677Z,950.6
2023-11-10T09:43:04.866Z,950.6
2023-11-10T09:44:06.735Z,950.6
2023-11-10T09:45:08.442Z,950.7
2023-11-10T09:46:10.504Z,950.7
2023-11-10T09:47:12.685Z,950.7
2023-11-10T09:48:14.459Z,950.7
2023-11-10T09:49:16.194Z,950.6
2023-11-10T09:50:17.961Z,950.6
2023-11-10T09:51:19.770Z,950.6
2023-11-10T09:52:21.672Z,950.6
2023-11-10T09:53:23.597Z,950.6
2023-11-10T09:54:25.593Z,950.6
2023-11-10T09:55:27.643Z,950.5
2023-11-10T09:56:29.422Z,950.5
2023-11-10T09:57:32.916Z,950.4
2023-11-10T09:58:34.753Z,950.4
2023-11-10T09:59:36.579Z,950.5
2023-11-10T10:00:38.781Z,950.5
2023-11-10T10:01:40.692Z,950.5
2023-11-10T10:02:43.206Z,950.5
2023-11-10T10:03:45.886Z,950.4
2023-11-10T10:04:48.514Z,950.3
2023-11-10T10:05:50.336Z,950.3
2023-11-10T10:06:52.127Z,950.3
2023-11-10T10:07:54.105Z,950.2
2023-11-10T10:08:55.877Z,950.2
2023-11-10T10:09:57.854Z,950.3
2023-11-10T10:10:59.810Z,950.2
2023-11-10T10:12:01.606Z,950.2
2023-11-10T10:13:03.787Z,950.1
2023-11-10T10:14:05.792Z,950.1
2023-11-10T10:15:07.753Z,950.1
2023-11-10T10:16:10.018Z,950
2023-11-10T10:17:12.000Z,950
2023-11-10T10:18:13.952Z,950
2023-11-10T10:19:15.755Z,950
2023-11-10T10:20:17.661Z,950
2023-11-10T10:21:19.461Z,949.9
2023-11-10T10:22:21.259Z,949.9
2023-11-10T10:23:23.089Z,949.8
2023-11-10T10:24:25.065Z,949.8
2023-11-10T10:25:26.981Z,949.7
2023-11-10T10:26:28.766Z,949.7
2023-11-10T10:27:30.856Z,949.7
2023-11-10T10:28:32.649Z,949.7
2023-11-10T10:29:34.434Z,949.7
2023-11-10T10:30:36.665Z,949.6
2023-11-10T10:31:39.189Z,949.6
2023-11-10T10:32:41.545Z,949.6
2023-11-10T10:33:43.783Z,949.6
2023-11-10T10:34:46.332Z,949.5
2023-11-10T10:35:48.373Z,949.5
2023-11-10T10:36:50.358Z,949.5
2023-11-10T10:37:52.176Z,949.5
2023-11-10T10:38:53.990Z,949.5
2023-11-10T10:39:55.998Z,949.5
2023-11-10T10:40:57.862Z,949.4
2023-11-10T10:41:59.641Z,949.3
2023-11-10T10:43:01.569Z,949.3
2023-11-10T10:44:11.840Z,949.4
2023-11-10T10:45:13.745Z,949.4
2023-11-10T10:46:16.049Z,949.4
2023-11-10T10:47:18.226Z,949.4
2023-11-10T10:48:20.007Z,949.3
2023-11-10T10:49:21.746Z,949.2
2023-11-10T10:50:25.461Z,949.2
2023-11-10T10:51:27.350Z,949.2
2023-11-10T10:52:29.132Z,949.2
2023-11-10T10:53:30.883Z,949.1
2023-11-10T10:54:33.018Z,949.1
2023-11-10T10:55:35.009Z,949.1
2023-11-10T10:56:46.365Z,949.1
2023-11-10T10:57:48.165Z,949.1
2023-11-10T10:58:50.028Z,949.1
2023-11-10T10:59:51.764Z,949.1
2023-11-10T11:00:53.810Z,949.1
2023-11-10T11:01:56.063Z,949.1
2023-11-10T11:02:58.088Z,949.1
2023-11-10T11:04:00.512Z,949.1
2023-11-10T11:05:02.584Z,949.1
2023-11-10T11:06:04.378Z,949.1
2023-11-10T11:07:06.332Z,949.2
2023-11-10T11:08:08.246Z,949.2
2023-11-10T11:09:10.008Z,949.1
2023-11-10T11:10:11.848Z,949.1
2023-11-10T11:11:13.762Z,949
2023-11-10T11:12:15.569Z,949
2023-11-10T11:13:17.761Z,949
2023-11-10T11:14:19.738Z,949
2023-11-10T11:15:21.528Z,949.1
2023-11-10T11:16:23.525Z,949.1
2023-11-10T11:17:25.320Z,949.1
2023-11-10T11:18:27.196Z,949.2
2023-11-10T11:19:29.174Z,949.1
2023-11-10T11:20:30.974Z,949.2
2023-11-10T11:21:33.040Z,949.2
2023-11-10T11:22:34.851Z,949.2
2023-11-10T11:23:36.786Z,949.1
2023-11-10T11:24:39.031Z,949
2023-11-10T11:25:40.931Z,949
2023-11-10T11:26:42.682Z,948.8
2023-11-10T11:27:44.629Z,948.9
2023-11-10T11:28:46.483Z,948.8
2023-11-10T11:29:48.259Z,948.9
2023-11-10T11:30:50.320Z,948.9
2023-11-10T11:31:52.585Z,948.9
2023-11-10T11:32:54.812Z,948.9
2023-11-10T11:33:56.890Z,948.8
2023-11-10T11:34:58.925Z,948.7
2023-11-10T11:36:00.987Z,948.7
2023-11-10T11:37:03.008Z,948.7
2023-11-10T11:38:04.929Z,948.7
2023-11-10T11:39:06.770Z,948.7
2023-11-10T11:40:08.820Z,948.6
2023-11-10T11:41:10.837Z,948.6
2023-11-10T11:42:12.535Z,948.5
2023-11-10T11:43:14.378Z,948.4
2023-11-10T11:44:16.146Z,948.4
2023-11-10T11:45:17.897Z,948.4
2023-11-10T11:46:20.143Z,948.3
2023-11-10T11:47:22.136Z,948.3
2023-11-10T11:48:23.948Z,948.4
2023-11-10T11:49:25.750Z,948.4
2023-11-10T11:50:27.474Z,948.4
2023-11-10T11:51:29.424Z,948.4
2023-11-10T11:52:31.262Z,948.3
2023-11-10T11:53:33.026Z,948.2
2023-11-10T11:54:35.090Z,948.1
2023-11-10T11:55:37.009Z,948
2023-11-10T11:56:38.814Z,948.1
2023-11-10T11:57:40.928Z,948
2023-11-10T11:58:42.844Z,947.9
2023-11-10T11:59:44.643Z,947.8
2023-11-10T12:00:46.511Z,947.8
2023-11-10T12:01:48.413Z,947.8
2023-11-10T12:02:50.600Z,947.7
2023-11-10T12:03:52.904Z,947.7
2023-11-10T12:04:55.086Z,947.7
2023-11-10T12:05:56.857Z,947.7
2023-11-10T12:06:58.730Z,947.6
2023-11-10T12:08:00.579Z,947.6
2023-11-10T12:09:02.339Z,947.5
2023-11-10T12:10:04.324Z,947.5
2023-11-10T12:11:06.448Z,947.5
2023-11-10T12:12:08.293Z,947.5
2023-11-10T12:13:10.223Z,947.5
2023-11-10T12:14:12.033Z,947.4
2023-11-10T12:15:13.789Z,947.4
2023-11-10T12:16:38.483Z,947.4
2023-11-10T12:17:42.135Z,947.4
2023-11-10T12:18:44.045Z,947.4
2023-11-10T12:19:46.006Z,947.4
2023-11-10T12:20:48.119Z,947.3
2023-11-10T12:21:50.253Z,947.3
2023-11-10T12:22:53.154Z,947.3
2023-11-10T12:23:54.931Z,947.3
2023-11-10T12:24:56.873Z,947.3
2023-11-10T12:25:58.817Z,947.2
2023-11-10T12:27:00.625Z,947.2
2023-11-10T12:28:02.861Z,947.2
2023-11-10T12:29:04.845Z,947.2
2023-11-10T12:30:06.669Z,947.1
2023-11-10T12:31:08.636Z,947.2
2023-11-10T12:32:10.522Z,947.1
2023-11-10T12:33:12.548Z,947.1
2023-11-10T12:34:14.915Z,947.1
2023-11-10T12:35:16.803Z,947
2023-11-10T12:36:18.630Z,947
2023-11-10T12:37:20.532Z,946.9
2023-11-10T12:38:22.479Z,946.9
2023-11-10T12:39:24.468Z,946.8
2023-11-10T12:40:26.445Z,946.9
2023-11-10T12:41:28.222Z,946.9
2023-11-10T12:42:31.167Z,946.9
2023-11-10T12:43:33.206Z,946.9
2023-11-10T12:44:35.230Z,946.9
2023-11-10T12:45:37.418Z,947
2023-11-10T12:46:39.817Z,947
2023-11-10T12:47:41.866Z,947
2023-11-10T12:48:44.040Z,947
2023-11-10T12:49:46.327Z,947
2023-11-10T12:50:48.170Z,947
2023-11-10T12:51:50.031Z,947
2023-11-10T12:52:51.848Z,947
2023-11-10T12:53:53.674Z,947
2023-11-10T12:54:55.577Z,947
2023-11-10T12:55:57.369Z,946.9
2023-11-10T12:56:59.133Z,946.8
2023-11-10T12:58:01.014Z,946.8
2023-11-10T12:59:02.987Z,946.8
2023-11-10T13:00:04.764Z,946.8
2023-11-10T13:01:06.786Z,946.8
2023-11-10T13:02:08.926Z,946.8
2023-11-10T13:03:11.229Z,946.8
2023-11-10T13:04:13.510Z,946.7
2023-11-10T13:05:15.476Z,946.8
2023-11-10T13:06:17.517Z,946.8
2023-11-10T13:07:19.494Z,946.8
2023-11-10T13:08:21.263Z,946.8
2023-11-10T13:09:23.046Z,946.9
2023-11-10T13:10:24.798Z,947
2023-11-10T13:11:26.551Z,947
2023-11-10T13:12:28.465Z,947.1
2023-11-10T13:13:30.264Z,947
2023-11-10T13:14:32.107Z,947
2023-11-10T13:15:34.387Z,947
2023-11-10T13:16:36.726Z,947
2023-11-10T13:17:39.083Z,947
2023-11-10T13:18:41.001Z,947
2023-11-10T13:19:42.975Z,947
2023-11-10T13:20:44.885Z,947
2023-11-10T13:21:47.018Z,947
2023-11-10T13:22:48.959Z,946.9
2023-11-10T13:23:51.118Z,946.8
2023-11-10T13:24:52.948Z,946.8
2023-11-10T13:25:54.912Z,946.8
2023-11-10T13:26:56.719Z,946.8
2023-11-10T13:27:58.580Z,946.7
2023-11-10T13:29:00.526Z,946.8